createdAt,value
2017-04-02T00:00:06.157Z,994.24
2017-04-02T00:01:16.223Z,994.22
2017-04-02T00:02:26.257Z,994.18
2017-04-02T00:03:36.283Z,994.18
2017-04-02T00:04:46.623Z,994.22
2017-04-02T00:05:56.962Z,994.21
2017-04-02T00:07:06.984Z,994.19
2017-04-02T00:08:17.313Z,994.21
2017-04-02T00:09:27.644Z,994.18
2017-04-02T00:10:37.993Z,994.17
2017-04-02T00:11:48.358Z,994.19
2017-04-02T00:12:58.074Z,994.24
2017-04-02T00:14:08.460Z,994.24
2017-04-02T00:15:18.820Z,994.22
2017-04-02T00:16:28.837Z,994.21
2017-04-02T00:17:39.182Z,994.17
2017-04-02T00:18:49.507Z,994.17
2017-04-02T00:19:59.859Z,994.14
2017-04-02T00:21:10.200Z,994.17
2017-04-02T00:22:20.256Z,994.19
2017-04-02T00:23:29.959Z,994.14
2017-04-02T00:24:40.299Z,994.15
2017-04-02T00:25:50.636Z,994.2
2017-04-02T00:27:00.674Z,994.19
2017-04-02T00:28:11.028Z,994.15
2017-04-02T00:29:21.402Z,994.18
2017-04-02T00:30:31.452Z,994.21
2017-04-02T00:31:41.491Z,994.22
2017-04-02T00:32:51.534Z,994.19
2017-04-02T00:34:01.250Z,994.17
2017-04-02T00:35:11.580Z,994.17
2017-04-02T00:36:21.616Z,994.19
2017-04-02T00:37:31.952Z,994.2
2017-04-02T00:38:42.002Z,994.26
2017-04-02T00:39:52.036Z,994.25
2017-04-02T00:41:01.761Z,994.25
2017-04-02T00:42:11.461Z,994.24
2017-04-02T00:43:21.503Z,994.24
2017-04-02T00:44:32.072Z,994.21
2017-04-02T00:45:42.396Z,994.22
2017-04-02T00:46:52.728Z,994.25
2017-04-02T00:48:02.771Z,994.21
2017-04-02T00:49:12.815Z,994.25
2017-04-02T00:50:23.157Z,994.25
2017-04-02T00:51:33.541Z,994.27
2017-04-02T00:52:43.895Z,994.3
2017-04-02T00:53:54.249Z,994.27
2017-04-02T00:55:04.589Z,994.24
2017-04-02T00:56:14.931Z,994.25
2017-04-02T00:57:25.265Z,994.31
2017-04-02T00:58:35.608Z,994.31
2017-04-02T00:59:45.947Z,994.31
2017-04-02T01:00:56.287Z,994.33
2017-04-02T01:02:06.316Z,994.27
2017-04-02T01:03:16.353Z,994.33
2017-04-02T01:04:26.710Z,994.35
2017-04-02T01:05:37.042Z,994.35
2017-04-02T01:06:47.372Z,994.3
2017-04-02T01:07:57.722Z,994.33
2017-04-02T01:09:08.069Z,994.3
2017-04-02T01:10:18.392Z,994.29
2017-04-02T01:11:28.774Z,994.31
2017-04-02T01:12:39.111Z,994.38
2017-04-02T01:13:49.141Z,994.36
2017-04-02T01:14:59.174Z,994.34
2017-04-02T01:16:09.215Z,994.32
2017-04-02T01:17:19.561Z,994.28
2017-04-02T01:18:29.909Z,994.32
2017-04-02T01:19:39.929Z,994.3
2017-04-02T01:20:49.964Z,994.33
2017-04-02T01:22:00.030Z,994.37
2017-04-02T01:23:10.575Z,994.38
2017-04-02T01:24:20.923Z,994.37
2017-04-02T01:25:31.255Z,994.4
2017-04-02T01:26:41.591Z,994.38
2017-04-02T01:27:51.628Z,994.37
2017-04-02T01:29:01.951Z,994.41
2017-04-02T01:30:12.281Z,994.36
2017-04-02T01:31:22.633Z,994.42
2017-04-02T01:32:32.979Z,994.39
2017-04-02T01:33:43.308Z,994.4
2017-04-02T01:34:53.328Z,994.43
2017-04-02T01:36:03.673Z,994.38
2017-04-02T01:37:13.707Z,994.39
2017-04-02T01:38:24.050Z,994.41
2017-04-02T01:39:34.066Z,994.41
2017-04-02T01:40:44.403Z,994.37
2017-04-02T01:41:54.732Z,994.39
2017-04-02T01:43:05.080Z,994.36
2017-04-02T01:44:15.103Z,994.38
2017-04-02T01:45:25.445Z,994.41
2017-04-02T01:46:35.511Z,994.39
2017-04-02T01:47:45.842Z,994.37
2017-04-02T01:48:56.181Z,994.32
2017-04-02T01:50:05.905Z,994.34
2017-04-02T01:51:16.236Z,994.42
2017-04-02T01:52:26.269Z,994.4
2017-04-02T01:53:36.300Z,994.45
2017-04-02T01:54:46.637Z,994.44
2017-04-02T01:55:56.979Z,994.43
2017-04-02T01:57:07.317Z,994.42
2017-04-02T01:58:17.668Z,994.43
2017-04-02T01:59:28.049Z,994.45
2017-04-02T02:00:38.078Z,994.41
2017-04-02T02:01:48.413Z,994.42
2017-04-02T02:02:58.757Z,994.46
2017-04-02T02:04:08.800Z,994.43
2017-04-02T02:05:19.133Z,994.42
2017-04-02T02:06:29.171Z,994.44
2017-04-02T02:07:39.498Z,994.46
2017-04-02T02:08:49.837Z,994.5
2017-04-02T02:10:00.194Z,994.47
2017-04-02T02:11:10.573Z,994.44
2017-04-02T02:12:20.914Z,994.47
2017-04-02T02:13:31.282Z,994.41
2017-04-02T02:14:41.676Z,994.46
2017-04-02T02:15:52.014Z,994.45
2017-04-02T02:17:02.354Z,994.47
2017-04-02T02:18:12.369Z,994.48
2017-04-02T02:19:22.692Z,994.49
2017-04-02T02:20:33.024Z,994.51
2017-04-02T02:21:43.364Z,994.54
2017-04-02T02:22:53.388Z,994.57
2017-04-02T02:24:03.740Z,994.56
2017-04-02T02:25:13.768Z,994.59
2017-04-02T02:26:24.118Z,994.57
2017-04-02T02:27:34.443Z,994.55
2017-04-02T02:28:44.472Z,994.57
2017-04-02T02:29:54.511Z,994.57
2017-04-02T02:31:04.549Z,994.61
2017-04-02T02:32:14.579Z,994.55
2017-04-02T02:33:24.600Z,994.55
2017-04-02T02:34:34.634Z,994.6
2017-04-02T02:35:44.983Z,994.59
2017-04-02T02:36:55.319Z,994.58
2017-04-02T02:38:05.654Z,994.59
2017-04-02T02:39:15.983Z,994.62
2017-04-02T02:40:25.989Z,994.62
2017-04-02T02:41:36.340Z,994.61
2017-04-02T02:42:46.367Z,994.59
2017-04-02T02:43:56.745Z,994.59
2017-04-02T02:45:07.072Z,994.66
2017-04-02T02:46:17.415Z,994.66
2017-04-02T02:47:27.746Z,994.67
2017-04-02T02:48:38.082Z,994.67
2017-04-02T02:49:48.103Z,994.71
2017-04-02T02:50:58.436Z,994.65
2017-04-02T02:52:08.774Z,994.68
2017-04-02T02:53:18.801Z,994.67
2017-04-02T02:54:28.825Z,994.64
2017-04-02T02:55:39.169Z,994.68
2017-04-02T02:56:49.504Z,994.61
2017-04-02T02:57:59.225Z,994.62
2017-04-02T02:59:09.568Z,994.65
2017-04-02T03:00:19.902Z,994.67
2017-04-02T03:01:30.230Z,994.72
2017-04-02T03:32:31.848Z,995
2017-04-02T03:33:41.851Z,994.99
2017-04-02T03:34:51.553Z,995.01
2017-04-02T03:36:01.883Z,994.97
2017-04-02T03:37:11.593Z,995.02
2017-04-02T03:38:21.926Z,995.02
2017-04-02T03:39:31.328Z,995.05
2017-04-02T03:40:41.032Z,995.05
2017-04-02T03:41:51.359Z,995.08
2017-04-02T03:43:01.708Z,995.11
2017-04-02T03:44:12.029Z,995.08
2017-04-02T03:45:22.360Z,995.03
2017-04-02T03:46:32.703Z,995.06
2017-04-02T03:47:42.729Z,995.1
2017-04-02T03:48:53.077Z,995.14
2017-04-02T03:50:03.427Z,995.13
2017-04-02T03:51:13.768Z,995.16
2017-04-02T03:52:24.099Z,995.16
2017-04-02T03:53:34.134Z,995.16
2017-04-02T03:54:43.835Z,995.19
2017-04-02T03:55:53.850Z,995.21
2017-04-02T03:57:04.172Z,995.19
2017-04-02T03:58:14.510Z,995.22
2017-04-02T03:59:24.845Z,995.22
2017-04-02T04:00:34.867Z,995.19
2017-04-02T04:01:44.931Z,995.23
2017-04-02T04:02:54.955Z,995.18
2017-04-02T04:04:05.286Z,995.2
2017-04-02T04:05:15.285Z,995.24
2017-04-02T04:06:25.311Z,995.23
2017-04-02T04:07:35.645Z,995.24
2017-04-02T04:08:45.977Z,995.22
2017-04-02T04:09:56.311Z,995.27
2017-04-02T04:11:06.651Z,995.31
2017-04-02T04:12:16.996Z,995.34
2017-04-02T04:13:27.332Z,995.33
2017-04-02T04:14:37.668Z,995.34
2017-04-02T04:15:47.995Z,995.34
2017-04-02T04:16:58.328Z,995.39
2017-04-02T04:18:08.903Z,995.43
2017-04-02T04:19:18.925Z,995.41
2017-04-02T04:20:28.632Z,995.42
2017-04-02T04:21:38.971Z,995.42
2017-04-02T04:22:48.970Z,995.46
2017-04-02T04:23:59.308Z,995.49
2017-04-02T04:25:09.684Z,995.51
2017-04-02T04:26:20.025Z,995.55
2017-04-02T04:27:30.359Z,995.53
2017-04-02T04:28:40.703Z,995.55
2017-04-02T04:29:51.035Z,995.61
2017-04-02T04:31:01.372Z,995.58
2017-04-02T04:32:11.084Z,995.61
2017-04-02T04:33:21.096Z,995.64
2017-04-02T04:34:31.130Z,995.64
2017-04-02T04:35:40.839Z,995.6
2017-04-02T04:36:50.847Z,995.62
2017-04-02T04:38:01.196Z,995.68
2017-04-02T04:39:11.209Z,995.66
2017-04-02T04:40:21.545Z,995.66
2017-04-02T04:41:31.875Z,995.67
2017-04-02T04:42:41.934Z,995.65
2017-04-02T04:43:52.271Z,995.66
2017-04-02T04:45:02.583Z,995.68
2017-04-02T04:46:12.923Z,995.72
2017-04-02T04:47:23.302Z,995.75
2017-04-02T04:48:33.319Z,995.78
2017-04-02T04:49:43.651Z,995.77
2017-04-02T04:50:53.986Z,995.83
2017-04-02T04:52:04.342Z,995.85
2017-04-02T04:53:14.050Z,995.89
2017-04-02T04:54:24.376Z,995.91
2017-04-02T04:55:34.419Z,995.89
2017-04-02T04:56:44.755Z,995.98
2017-04-02T04:57:54.788Z,995.95
2017-04-02T04:59:05.111Z,996.08
2017-04-02T05:00:15.135Z,995.98
2017-04-02T05:01:25.507Z,996.03
2017-04-02T05:02:35.831Z,996.02
2017-04-02T05:03:46.166Z,995.94
2017-04-02T05:04:56.202Z,995.99
2017-04-02T05:06:06.537Z,996.1
2017-04-02T05:07:16.871Z,996.09
2017-04-02T05:08:26.900Z,996.14
2017-04-02T05:09:36.915Z,996.19
2017-04-02T05:10:47.250Z,996.19
2017-04-02T05:11:57.592Z,996.25
2017-04-02T05:13:07.933Z,996.3
2017-04-02T05:14:18.276Z,996.27
2017-04-02T05:15:28.598Z,996.2
2017-04-02T05:16:38.926Z,996.09
2017-04-02T05:17:48.951Z,996.07
2017-04-02T05:18:58.979Z,996.04
2017-04-02T05:20:09.319Z,996.1
2017-04-02T05:21:19.670Z,996.08
2017-04-02T05:22:30.002Z,996.09
2017-04-02T05:23:40.020Z,996.13
2017-04-02T05:24:50.346Z,996.13
2017-04-02T05:26:00.684Z,996.13
2017-04-02T05:27:11.022Z,996.14
2017-04-02T05:28:21.353Z,996.13
2017-04-02T05:29:31.683Z,996.2
2017-04-02T05:30:42.036Z,996.18
2017-04-02T05:31:52.371Z,996.25
2017-04-02T05:33:02.719Z,996.29
2017-04-02T05:34:12.738Z,996.25
2017-04-02T05:35:23.079Z,996.3
2017-04-02T05:36:33.445Z,996.26
2017-04-02T05:37:43.810Z,996.25
2017-04-02T05:38:53.835Z,996.25
2017-04-02T05:40:04.230Z,996.29
2017-04-02T05:41:14.573Z,996.33
2017-04-02T05:42:24.916Z,996.35
2017-04-02T05:43:35.269Z,996.36
2017-04-02T05:44:45.296Z,996.5
2017-04-02T05:45:55.630Z,996.44
2017-04-02T05:47:05.714Z,996.49
2017-04-02T05:48:16.083Z,996.45
2017-04-02T05:49:26.427Z,996.48
2017-04-02T05:50:36.764Z,996.5
2017-04-02T05:51:47.092Z,996.48
2017-04-02T05:52:57.431Z,996.5
2017-04-02T05:54:07.769Z,996.53
2017-04-02T05:55:18.114Z,996.55
2017-04-02T05:56:28.450Z,996.49
2017-04-02T05:57:38.471Z,996.58
2017-04-02T05:58:48.813Z,996.66
2017-04-02T05:59:58.526Z,996.7
2017-04-02T06:01:08.239Z,996.69
2017-04-02T06:02:18.587Z,996.7
2017-04-02T06:03:28.604Z,996.66
2017-04-02T06:04:38.982Z,996.7
2017-04-02T06:05:48.996Z,996.72
2017-04-02T06:06:59.320Z,996.72
2017-04-02T06:08:09.649Z,996.72
2017-04-02T06:09:19.981Z,996.74
2017-04-02T06:10:30.315Z,996.76
2017-04-02T06:11:40.341Z,996.76
2017-04-02T06:12:50.682Z,996.76
2017-04-02T06:14:00.394Z,996.77
2017-04-02T06:15:10.440Z,996.8
2017-04-02T06:16:20.797Z,996.78
2017-04-02T06:17:31.145Z,996.79
2017-04-02T06:18:41.163Z,996.79
2017-04-02T06:19:51.198Z,996.75
2017-04-02T06:21:01.537Z,996.77
2017-04-02T06:22:11.956Z,996.78
2017-04-02T06:23:22.344Z,996.78
2017-04-02T06:24:32.724Z,996.75
2017-04-02T06:25:43.081Z,996.75
2017-04-02T06:26:53.432Z,996.77
2017-04-02T06:28:03.471Z,996.76
2017-04-02T06:29:13.804Z,996.78
2017-04-02T06:30:24.288Z,996.77
2017-04-02T06:31:34.585Z,996.76
2017-04-02T06:32:44.951Z,996.81
2017-04-02T06:33:54.958Z,996.82
2017-04-02T06:35:04.369Z,996.83
2017-04-02T06:36:14.381Z,996.86
2017-04-02T06:37:24.099Z,996.85
2017-04-02T06:38:34.149Z,996.89
2017-04-02T06:39:44.527Z,996.91
2017-04-02T06:40:54.548Z,996.86
2017-04-02T06:42:04.915Z,996.87
2017-04-02T06:43:15.245Z,996.9
2017-04-02T06:44:25.274Z,996.91
2017-04-02T06:45:35.621Z,996.95
2017-04-02T06:46:45.648Z,996.98
2017-04-02T06:47:55.683Z,996.97
2017-04-02T06:49:06.022Z,997.01
2017-04-02T06:50:16.363Z,997.04
2017-04-02T06:51:26.084Z,997.06
2017-04-02T06:52:36.430Z,997.05
2017-04-02T06:53:46.461Z,997.03
2017-04-02T06:54:56.811Z,997.07
2017-04-02T06:56:07.167Z,997.09
2017-04-02T06:57:17.512Z,997.1
2017-04-02T06:58:27.247Z,997.12
2017-04-02T06:59:37.585Z,997.16
2017-04-02T07:00:47.923Z,997.15
2017-04-02T07:01:58.294Z,997.18
2017-04-02T07:03:08.098Z,997.17
2017-04-02T07:04:18.117Z,997.21
2017-04-02T07:05:28.470Z,997.2
2017-04-02T07:06:38.498Z,997.23
2017-04-02T07:07:48.538Z,997.23
2017-04-02T07:08:58.874Z,997.3
2017-04-02T07:10:09.217Z,997.28
2017-04-02T07:11:19.249Z,997.25
2017-04-02T07:12:29.589Z,997.29
2017-04-02T07:13:39.613Z,997.31
2017-04-02T07:14:49.020Z,997.28
2017-04-02T07:15:58.739Z,997.33
2017-04-02T07:17:09.077Z,997.32
2017-04-02T07:18:19.118Z,997.34
2017-04-02T07:19:29.490Z,997.33
2017-04-02T07:20:39.518Z,997.31
2017-04-02T07:21:49.859Z,997.35
2017-04-02T07:23:00.202Z,997.34
2017-04-02T07:24:10.532Z,997.36
2017-04-02T07:25:20.881Z,997.38
2017-04-02T07:26:31.220Z,997.4
2017-04-02T07:27:41.282Z,997.39
2017-04-02T07:28:51.629Z,997.41
2017-04-02T07:30:01.970Z,997.43
2017-04-02T07:31:12.337Z,997.46
2017-04-02T07:32:22.141Z,997.46
2017-04-02T07:33:32.489Z,997.46
2017-04-02T07:34:42.833Z,997.49
2017-04-02T07:35:53.174Z,997.49
2017-04-02T07:37:03.516Z,997.55
2017-04-02T07:38:13.851Z,997.56
2017-04-02T07:39:24.191Z,997.57
2017-04-02T07:40:34.536Z,997.63
2017-04-02T07:41:44.574Z,997.64
2017-04-02T07:42:54.290Z,997.65
2017-04-02T07:44:04.311Z,997.72
2017-04-02T07:45:14.645Z,997.73
2017-04-02T07:46:24.993Z,997.79
2017-04-02T07:47:35.346Z,997.79
2017-04-02T07:48:45.073Z,997.79
2017-04-02T07:49:55.421Z,997.76
2017-04-02T07:51:05.812Z,997.8
2017-04-02T07:52:16.158Z,997.84
2017-04-02T07:53:26.508Z,997.82
2017-04-02T07:54:36.529Z,997.84
2017-04-02T07:55:46.578Z,997.83
2017-04-02T07:56:56.606Z,997.85
2017-04-02T07:58:06.642Z,997.9
2017-04-02T07:59:16.352Z,997.9
2017-04-02T08:00:26.686Z,997.9
2017-04-02T08:01:36.397Z,997.92
2017-04-02T08:02:46.748Z,997.92
2017-04-02T08:03:56.782Z,997.95
2017-04-02T08:05:07.116Z,997.95
2017-04-02T08:06:16.833Z,997.97
2017-04-02T08:07:27.192Z,997.97
2017-04-02T08:08:37.533Z,997.95
2017-04-02T08:09:47.244Z,997.98
2017-04-02T08:10:57.273Z,997.97
2017-04-02T08:12:07.615Z,997.98
2017-04-02T08:13:17.639Z,997.99
2017-04-02T08:14:27.986Z,997.97
2017-04-02T08:15:38.332Z,997.96
2017-04-02T08:16:48.679Z,997.96
2017-04-02T08:17:59.018Z,997.96
2017-04-02T08:19:09.373Z,997.93
2017-04-02T08:20:19.709Z,997.99
2017-04-02T08:21:30.058Z,997.97
2017-04-02T08:22:40.405Z,998.01
2017-04-02T08:23:50.432Z,997.99
2017-04-02T08:25:00.829Z,998.04
2017-04-02T08:26:10.848Z,998.04
2017-04-02T08:27:21.214Z,998.03
2017-04-02T08:28:31.551Z,998.1
2017-04-02T08:29:41.267Z,998.09
2017-04-02T08:30:51.330Z,998.09
2017-04-02T08:32:01.365Z,998.05
2017-04-02T08:33:11.090Z,998.07
2017-04-02T08:34:21.131Z,998.09
2017-04-02T08:35:31.172Z,998.11
2017-04-02T08:36:41.536Z,998.14
2017-04-02T08:37:51.881Z,998.12
2017-04-02T08:39:02.233Z,998.14
2017-04-02T08:40:12.578Z,998.17
2017-04-02T08:41:22.926Z,998.13
2017-04-02T08:42:33.273Z,998.19
2017-04-02T08:43:43.604Z,998.18
2017-04-02T08:44:53.952Z,998.15
2017-04-02T08:46:03.983Z,998.18
2017-04-02T08:47:14.025Z,998.19
2017-04-02T08:48:24.367Z,998.18
2017-04-02T08:49:34.393Z,998.2
2017-04-02T08:50:44.725Z,998.25
2017-04-02T08:51:54.440Z,998.24
2017-04-02T08:53:04.822Z,998.25
2017-04-02T08:54:15.175Z,998.27
2017-04-02T08:55:25.213Z,998.27
2017-04-02T08:56:35.575Z,998.27
2017-04-02T08:57:45.609Z,998.31
2017-04-02T08:58:55.960Z,998.33
2017-04-02T09:00:06.299Z,998.3
2017-04-02T09:01:16.337Z,998.34
2017-04-02T09:02:26.712Z,998.33
2017-04-02T09:03:37.064Z,998.33
2017-04-02T09:04:47.089Z,998.33
2017-04-02T09:05:57.444Z,998.37
2017-04-02T09:07:07.818Z,998.34
2017-04-02T09:08:18.176Z,998.37
2017-04-02T09:09:28.202Z,998.36
2017-04-02T09:10:38.543Z,998.35
2017-04-02T09:11:48.885Z,998.33
2017-04-02T09:12:58.922Z,998.35
2017-04-02T09:14:08.674Z,998.39
2017-04-02T09:15:19.030Z,998.35
2017-04-02T09:16:29.382Z,998.37
2017-04-02T09:17:39.790Z,998.4
2017-04-02T09:18:50.151Z,998.4
2017-04-02T09:20:00.521Z,998.43
2017-04-02T09:21:10.880Z,998.43
2017-04-02T09:22:20.924Z,998.43
2017-04-02T09:23:31.291Z,998.48
2017-04-02T09:24:41.315Z,998.5
2017-04-02T09:25:51.351Z,998.46
2017-04-02T09:27:01.715Z,998.47
2017-04-02T09:28:11.745Z,998.48
2017-04-02T09:29:21.801Z,998.45
2017-04-02T09:30:32.154Z,998.44
2017-04-02T09:31:42.515Z,998.43
2017-04-02T09:32:52.535Z,998.42
2017-04-02T09:34:02.575Z,998.49
2017-04-02T09:35:12.973Z,998.44
2017-04-02T09:36:23.041Z,998.42
2017-04-02T09:37:33.103Z,998.43
2017-04-02T09:38:43.470Z,998.46
2017-04-02T09:39:53.810Z,998.45
2017-04-02T09:41:04.149Z,998.48
2017-04-02T09:42:14.184Z,998.51
2017-04-02T09:43:24.538Z,998.5
2017-04-02T09:44:34.874Z,998.45
2017-04-02T09:45:45.244Z,998.46
2017-04-02T09:46:55.598Z,998.47
2017-04-02T09:48:05.633Z,998.5
2017-04-02T09:49:16.000Z,998.48
2017-04-02T09:50:26.354Z,998.46
2017-04-02T09:51:36.739Z,998.46
2017-04-02T09:52:47.076Z,998.49
2017-04-02T09:53:56.798Z,998.46
2017-04-02T09:55:07.148Z,998.49
2017-04-02T09:56:17.492Z,998.47
2017-04-02T09:57:27.847Z,998.48
2017-04-02T09:58:38.186Z,998.49
2017-04-02T09:59:48.531Z,998.48
2017-04-02T10:00:58.881Z,998.48
2017-04-02T10:02:09.247Z,998.5
2017-04-02T10:03:19.598Z,998.51
2017-04-02T10:04:29.644Z,998.5
2017-04-02T10:05:40.015Z,998.47
2017-04-02T10:06:50.052Z,998.45
2017-04-02T10:08:00.411Z,998.45
2017-04-02T10:09:10.455Z,998.44
2017-04-02T10:10:21.093Z,998.45
2017-04-02T10:11:31.150Z,998.47
2017-04-02T10:12:41.503Z,998.47
2017-04-02T10:13:51.881Z,998.45
2017-04-02T10:15:02.304Z,998.44
2017-04-02T10:16:12.677Z,998.45
2017-04-02T10:17:23.059Z,998.46
2017-04-02T10:18:33.415Z,998.45
2017-04-02T10:19:43.477Z,998.43
2017-04-02T10:20:53.853Z,998.4
2017-04-02T10:22:03.939Z,998.39
2017-04-02T10:23:14.002Z,998.41
2017-04-02T10:24:24.398Z,998.4
2017-04-02T10:25:34.777Z,998.41
2017-04-02T10:26:44.524Z,998.39
2017-04-02T10:27:54.869Z,998.4
2017-04-02T10:29:05.235Z,998.41
2017-04-02T10:30:15.338Z,998.41
2017-04-02T10:31:25.728Z,998.41
2017-04-02T10:32:36.111Z,998.35
2017-04-02T10:33:46.477Z,998.38
2017-04-02T10:34:57.076Z,998.38
2017-04-02T10:36:07.431Z,998.39
2017-04-02T10:37:17.504Z,998.37
2017-04-02T10:38:27.869Z,998.38
2017-04-02T10:39:38.233Z,998.39
2017-04-02T10:40:48.536Z,998.32
2017-04-02T10:41:58.959Z,998.36
2017-04-02T10:43:08.995Z,998.3
2017-04-02T10:44:19.358Z,998.31
2017-04-02T10:45:29.964Z,998.33
2017-04-02T10:46:40.326Z,998.27
2017-04-02T10:47:50.077Z,998.31
2017-04-02T10:49:00.120Z,998.34
2017-04-02T10:50:10.447Z,998.31
2017-04-02T10:51:20.891Z,998.32
2017-04-02T10:52:31.258Z,998.29
2017-04-02T10:53:41.602Z,998.33
2017-04-02T10:54:51.662Z,998.29
2017-04-02T10:56:02.017Z,998.3
2017-04-02T10:57:12.387Z,998.29
2017-04-02T10:58:22.429Z,998.26
2017-04-02T10:59:32.803Z,998.26
2017-04-02T11:00:42.881Z,998.29
2017-04-02T11:01:53.245Z,998.21
2017-04-02T11:03:03.327Z,998.25
2017-04-02T11:04:13.683Z,998.26
2017-04-02T11:05:24.078Z,998.25
2017-04-02T11:06:34.431Z,998.23
2017-04-02T11:07:44.487Z,998.22
2017-04-02T11:08:54.583Z,998.26
2017-04-02T11:10:04.330Z,998.23
2017-04-02T11:11:14.726Z,998.27
2017-04-02T11:12:24.773Z,998.24
2017-04-02T11:13:35.139Z,998.28
2017-04-02T11:14:45.507Z,998.26
2017-04-02T11:15:55.248Z,998.3
2017-04-02T11:17:05.598Z,998.31
2017-04-02T11:18:15.978Z,998.31
2017-04-02T11:19:26.370Z,998.32
2017-04-02T11:20:36.796Z,998.34
2017-04-02T11:21:47.222Z,998.3
2017-04-02T11:22:57.598Z,998.3
2017-04-02T11:24:08.003Z,998.29
2017-04-02T11:25:18.367Z,998.28
2017-04-02T11:26:28.728Z,998.3
2017-04-02T11:27:38.790Z,998.27
2017-04-02T11:28:49.149Z,998.25
2017-04-02T11:29:59.537Z,998.29
2017-04-02T11:31:09.892Z,998.3
2017-04-02T11:32:19.948Z,998.31
2017-04-02T11:33:29.696Z,998.32
2017-04-02T11:34:40.060Z,998.28
2017-04-02T11:42:11.261Z,998.17
2017-04-02T11:43:21.309Z,998.09
2017-04-02T11:44:31.403Z,998.12
2017-04-02T11:45:41.444Z,998.12
2017-04-02T11:46:51.800Z,998.12
2017-04-02T11:48:02.152Z,998.12
2017-04-02T11:49:12.513Z,998.11
2017-04-02T11:50:22.869Z,998.07
2017-04-02T11:51:32.308Z,998.05
2017-04-02T11:52:42.647Z,998.01
2017-04-02T11:53:53.035Z,998.01
2017-04-02T11:55:03.405Z,998.03
2017-04-02T11:56:13.432Z,998.02
2017-04-02T11:57:23.771Z,997.95
2017-04-02T11:58:34.167Z,997.99
2017-04-02T11:59:44.210Z,997.95
2017-04-02T12:00:54.249Z,997.93
2017-04-02T12:02:04.297Z,997.89
2017-04-02T12:03:14.654Z,997.95
2017-04-02T12:04:25.012Z,997.91
2017-04-02T12:05:35.073Z,997.89
2017-04-02T12:06:45.126Z,997.9
2017-04-02T12:07:55.472Z,997.88
2017-04-02T12:09:05.827Z,997.86
2017-04-02T12:10:15.237Z,997.9
2017-04-02T12:11:25.590Z,997.86
2017-04-02T12:12:35.972Z,997.82
2017-04-02T12:13:46.009Z,997.84
2017-04-02T12:14:55.726Z,997.79
2017-04-02T12:16:05.803Z,997.75
2017-04-02T12:17:16.173Z,997.75
2017-04-02T12:18:26.541Z,997.72
2017-04-02T12:19:36.253Z,997.73
2017-04-02T12:20:46.303Z,997.75
2017-04-02T12:21:56.350Z,997.71
2017-04-02T12:23:06.714Z,997.67
2017-04-02T12:24:17.049Z,997.67
2017-04-02T12:25:27.103Z,997.67
2017-04-02T12:26:37.159Z,997.67
2017-04-02T12:27:47.199Z,997.7
2017-04-02T12:28:57.221Z,997.65
2017-04-02T12:30:06.988Z,997.66
2017-04-02T12:31:17.042Z,997.61
2017-04-02T12:32:27.087Z,997.68
2017-04-02T12:33:37.433Z,997.63
2017-04-02T12:34:47.160Z,997.63
2017-04-02T12:35:57.518Z,997.65
2017-04-02T12:37:07.896Z,997.63
2017-04-02T12:38:17.621Z,997.6
2017-04-02T12:39:27.079Z,997.66
2017-04-02T12:40:37.451Z,997.64
2017-04-02T12:41:47.500Z,997.66
2017-04-02T12:42:57.535Z,997.65
2017-04-02T12:44:07.875Z,997.67
2017-04-02T12:45:18.228Z,997.7
2017-04-02T12:46:28.285Z,997.67
2017-04-02T12:47:38.618Z,997.64
2017-04-02T12:48:48.970Z,997.65
2017-04-02T12:49:59.044Z,997.67
2017-04-02T12:51:09.074Z,997.63
2017-04-02T12:52:19.442Z,997.66
2017-04-02T12:53:29.179Z,997.62
2017-04-02T12:54:39.206Z,997.58
2017-04-02T12:55:49.568Z,997.55
2017-04-02T12:56:59.916Z,997.58
2017-04-02T12:58:09.954Z,997.51
2017-04-02T12:59:20.324Z,997.47
2017-04-02T13:00:30.674Z,997.52
2017-04-02T13:01:40.705Z,997.5
2017-04-02T13:02:50.764Z,997.48
2017-04-02T13:04:01.114Z,997.45
2017-04-02T13:05:11.162Z,997.45
2017-04-02T13:06:21.524Z,997.38
2017-04-02T13:07:31.914Z,997.44
2017-04-02T13:08:41.328Z,997.45
2017-04-02T13:09:51.362Z,997.42
2017-04-02T13:11:01.399Z,997.38
2017-04-02T13:12:11.791Z,997.42
2017-04-02T13:13:22.152Z,997.4
2017-04-02T13:14:32.190Z,997.35
2017-04-02T13:15:42.550Z,997.39
2017-04-02T13:16:52.901Z,997.38
2017-04-02T13:18:02.942Z,997.36
2017-04-02T13:19:12.980Z,997.35
2017-04-02T13:20:23.013Z,997.33
2017-04-02T13:21:33.419Z,997.31
2017-04-02T13:22:43.780Z,997.31
2017-04-02T13:23:53.817Z,997.27
2017-04-02T13:25:03.865Z,997.27
2017-04-02T13:26:14.226Z,997.2
2017-04-02T13:27:24.593Z,997.26
2017-04-02T13:28:34.992Z,997.22
2017-04-02T13:29:45.349Z,997.16
2017-04-02T13:30:55.716Z,997.16
2017-04-02T13:32:06.076Z,997.15
2017-04-02T13:33:16.131Z,997.17
2017-04-02T13:34:26.474Z,997.22
2017-04-02T13:35:36.223Z,997.19
2017-04-02T13:36:46.588Z,997.17
2017-04-02T13:37:56.933Z,997.19
2017-04-02T13:39:07.274Z,997.19
2017-04-02T13:40:17.619Z,997.23
2017-04-02T13:41:27.954Z,997.23
2017-04-02T13:42:38.310Z,997.19
2017-04-02T13:43:48.356Z,997.17
2017-04-02T13:44:58.694Z,997.15
2017-04-02T13:46:08.788Z,997.12
2017-04-02T13:47:18.833Z,997.11
2017-04-02T13:48:28.905Z,997.12
2017-04-02T13:49:39.280Z,997.11
2017-04-02T13:50:49.876Z,997.1
2017-04-02T13:52:00.225Z,997.12
2017-04-02T13:53:10.594Z,997.16
2017-04-02T13:54:20.952Z,997.14
2017-04-02T13:55:31.003Z,997.16
2017-04-02T13:56:41.357Z,997.13
2017-04-02T13:57:51.429Z,997.11
2017-04-02T13:59:01.780Z,997.1
2017-04-02T14:00:12.125Z,997.13
2017-04-02T14:01:22.482Z,997.15
2017-04-02T14:02:32.527Z,997.16
2017-04-02T14:03:42.850Z,997.14
2017-04-02T14:04:52.563Z,997.2
2017-04-02T14:06:02.623Z,997.19
2017-04-02T14:07:12.972Z,997.2
2017-04-02T14:08:23.007Z,997.19
2017-04-02T14:09:33.346Z,997.2
2017-04-02T14:10:43.392Z,997.12
2017-04-02T14:11:53.684Z,997.16
2017-04-02T14:13:03.639Z,997.15
2017-04-02T14:14:14.008Z,997.11
2017-04-02T14:15:24.418Z,997.15
2017-04-02T14:16:34.805Z,997.16
2017-04-02T14:17:45.149Z,997.13
2017-04-02T14:18:55.202Z,997.17
2017-04-02T14:20:05.551Z,997.12
2017-04-02T14:21:15.588Z,997.13
2017-04-02T14:22:25.933Z,997.17
2017-04-02T14:23:35.988Z,997.17
2017-04-02T14:24:46.372Z,997.15
2017-04-02T14:25:56.726Z,997.14
2017-04-02T14:27:06.808Z,997.19
2017-04-02T14:28:17.173Z,997.18
2017-04-02T14:29:27.538Z,997.17
2017-04-02T14:30:37.900Z,997.16
2017-04-02T14:31:47.991Z,997.17
2017-04-02T14:32:58.354Z,997.21
2017-04-02T14:34:08.710Z,997.19
2017-04-02T14:35:19.065Z,997.19
2017-04-02T14:36:29.428Z,997.19
2017-04-02T14:37:39.493Z,997.21
2017-04-02T14:38:49.523Z,997.21
2017-04-02T14:39:59.872Z,997.23
2017-04-02T14:41:09.905Z,997.22
2017-04-02T14:42:20.261Z,997.19
2017-04-02T14:43:30.634Z,997.23
2017-04-02T14:44:40.671Z,997.19
2017-04-02T14:45:51.019Z,997.21
2017-04-02T14:47:01.052Z,997.16
2017-04-02T14:48:11.408Z,997.2
2017-04-02T14:49:21.764Z,997.22
2017-04-02T14:50:32.120Z,997.17
2017-04-02T14:51:42.158Z,997.2
2017-04-02T14:52:52.494Z,997.24
2017-04-02T14:54:02.536Z,997.25
2017-04-02T14:55:12.881Z,997.22
2017-04-02T14:56:23.225Z,997.24
2017-04-02T14:57:33.568Z,997.21
2017-04-02T14:58:43.617Z,997.19
2017-04-02T14:59:53.984Z,997.2
2017-04-02T15:01:04.349Z,997.22
2017-04-02T15:02:14.716Z,997.19
2017-04-02T15:03:24.745Z,997.17
2017-04-02T15:04:35.090Z,997.18
2017-04-02T15:05:45.458Z,997.24
2017-04-02T15:06:55.518Z,997.23
2017-04-02T15:08:05.891Z,997.23
2017-04-02T15:09:16.247Z,997.24
2017-04-02T15:10:26.629Z,997.3
2017-04-02T15:11:36.977Z,997.29
2017-04-02T15:12:47.028Z,997.32
2017-04-02T15:13:57.394Z,997.31